Time;durP1;ratioP1;P1;durP2;ratioP2;P2;SDS_P1;SDS_P2;PMS_P1;PMS_P2;Temp;Humidity;BMP_temperature;BMP_pressure;BME280_temperature;BME280_humidity;BME280_pressure;Samples;Min_cycle;Max_cycle;Signal;HPM_P1;HPM_P2
2021/03/22 00:00:25;;;;;;;20.25;10.45;;;;;;;;;;8227515;28;20058;-71
2021/03/22 00:04:30;;;;;;;16.50;9.13;;;;;;;;;;8227267;28;20368;-70
2021/03/22 00:08:35;;;;;;;19.42;9.70;;;;;;;;;;8227720;28;20376;-71
2021/03/22 00:12:39;;;;;;;15.02;7.50;;;;;;;;;;8226997;28;20476;-70
2021/03/22 00:16:49;;;;;;;13.75;6.40;;;;;;;;;;8242972;28;20080;-70
2021/03/22 00:20:55;;;;;;;15.98;7.13;;;;;;;;;;8226919;28;20471;-73
2021/03/22 00:24:59;;;;;;;14.88;7.43;;;;;;;;;;8227083;28;20076;-71
2021/03/22 00:29:04;;;;;;;14.02;6.88;;;;;;;;;;8226025;28;20360;-70
2021/03/22 00:33:11;;;;;;;13.15;6.13;;;;;;;;;;8227347;28;20441;-71
2021/03/22 00:37:15;;;;;;;13.63;6.13;;;;;;;;;;8227667;28;20426;-71
2021/03/22 00:41:22;;;;;;;11.43;5.88;;;;;;;;;;8227014;28;20468;-70
2021/03/22 00:45:27;;;;;;;11.45;5.65;;;;;;;;;;8226524;28;20372;-70
2021/03/22 00:49:31;;;;;;;16.60;6.22;;;;;;;;;;8223868;28;20356;-70
2021/03/22 00:53:36;;;;;;;13.30;5.95;;;;;;;;;;8241962;28;20341;-70
2021/03/22 00:57:41;;;;;;;11.07;5.85;;;;;;;;;;8225982;28;20486;-70
2021/03/22 01:01:46;;;;;;;15.13;6.35;;;;;;;;;;8225988;28;20076;-70
2021/03/22 01:05:51;;;;;;;12.45;6.20;;;;;;;;;;8250122;28;20468;-70
2021/03/22 01:09:56;;;;;;;15.82;6.07;;;;;;;;;;8256627;28;20383;-71
2021/03/22 01:14:00;;;;;;;13.88;5.40;;;;;;;;;;8257536;28;20067;-70
2021/03/22 01:18:05;;;;;;;12.70;5.57;;;;;;;;;;8257085;28;20364;-69
2021/03/22 01:22:09;;;;;;;12.32;5.65;;;;;;;;;;8258698;28;20444;-70
2021/03/22 01:26:17;;;;;;;13.13;5.65;;;;;;;;;;8257415;28;20479;-71
2021/03/22 01:30:38;;;;;;;12.35;6.07;;;;;;;;;;8257732;28;20464;-70
2021/03/22 01:34:49;;;;;;;13.00;5.87;;;;;;;;;;8259254;28;20087;-70
2021/03/22 01:39:03;;;;;;;14.93;5.68;;;;;;;;;;8258437;28;20976;-70
2021/03/22 01:44:10;;;;;;;12.57;5.43;;;;;;;;;;8257332;28;20452;-70
2021/03/22 01:48:15;;;;;;;13.20;5.32;;;;;;;;;;8257127;28;20053;-71
2021/03/22 01:52:22;;;;;;;12.40;4.93;;;;;;;;;;8259741;28;20470;-70
2021/03/22 01:56:26;;;;;;;11.43;4.70;;;;;;;;;;8256075;28;20071;-69
2021/03/22 02:00:38;;;;;;;7.97;4.38;;;;;;;;;;8257750;28;20452;-70
2021/03/22 02:04:56;;;;;;;7.85;4.10;;;;;;;;;;8256516;28;20379;-69
2021/03/22 02:09:01;;;;;;;6.78;3.80;;;;;;;;;;8255969;28;20484;-70
2021/03/22 02:13:06;;;;;;;150.30;69.80;;;;;;;;;;8257309;28;20422;-69
2021/03/22 02:17:25;;;;;;;13.73;7.22;;;;;;;;;;8255384;28;20057;-71
2021/03/22 02:22:26;;;;;;;17.50;5.05;;;;;;;;;;8255826;28;20440;-71
2021/03/22 02:27:03;;;;;;;10.95;4.78;;;;;;;;;;8257309;28;20053;-69
2021/03/22 02:31:40;;;;;;;12.25;4.65;;;;;;;;;;8258317;28;20458;-69
2021/03/22 02:35:54;;;;;;;10.32;4.03;;;;;;;;;;8256933;28;20488;-70
2021/03/22 02:40:27;;;;;;;15.20;5.35;;;;;;;;;;8255291;28;20502;-70
2021/03/22 02:44:35;;;;;;;20.83;5.03;;;;;;;;;;8255267;28;20045;-70
2021/03/22 02:48:59;;;;;;;6.57;3.70;;;;;;;;;;8259266;28;20359;-70
2021/03/22 02:53:39;;;;;;;9.82;4.38;;;;;;;;;;8255779;28;20498;-70
2021/03/22 02:58:20;;;;;;;8.85;4.03;;;;;;;;;;8256179;28;20045;-69
2021/03/22 03:02:28;;;;;;;11.00;4.25;;;;;;;;;;8236847;28;20391;-70
2021/03/22 03:06:59;;;;;;;11.20;4.10;;;;;;;;;;8254925;28;20360;-69
2021/03/22 03:11:03;;;;;;;9.65;3.85;;;;;;;;;;8255132;28;20072;-69
2021/03/22 03:15:09;;;;;;;11.85;5.18;;;;;;;;;;8264429;28;20475;-68
2021/03/22 03:19:23;;;;;;;9.35;3.92;;;;;;;;;;8261564;28;20380;-70
2021/03/22 03:23:30;;;;;;;10.60;4.43;;;;;;;;;;8261415;28;20383;-69
2021/03/22 03:27:34;;;;;;;10.88;4.97;;;;;;;;;;8262200;28;20474;-70
2021/03/22 03:31:39;;;;;;;13.15;6.05;;;;;;;;;;8261577;28;20048;-69
2021/03/22 03:35:44;;;;;;;14.80;5.78;;;;;;;;;;8261507;28;20379;-69
2021/03/22 03:39:48;;;;;;;19.88;6.97;;;;;;;;;;8262937;28;20475;-69
2021/03/22 03:43:53;;;;;;;11.48;5.03;;;;;;;;;;8275843;28;20411;-69
2021/03/22 03:47:57;;;;;;;15.20;5.22;;;;;;;;;;8261129;28;20480;-69
2021/03/22 03:52:06;;;;;;;17.13;6.40;;;;;;;;;;8260576;28;20464;-68
2021/03/22 03:56:10;;;;;;;27.27;11.23;;;;;;;;;;8261583;28;20479;-69
2021/03/22 04:00:35;;;;;;;47.38;9.95;;;;;;;;;;8260791;28;20398;-68
2021/03/22 04:04:40;;;;;;;70.50;15.63;;;;;;;;;;8262987;28;20044;-68
2021/03/22 04:08:50;;;;;;;47.85;13.85;;;;;;;;;;8261835;28;20048;-68
2021/03/22 04:12:54;;;;;;;19.95;8.02;;;;;;;;;;8258664;28;20375;-69
2021/03/22 04:16:59;;;;;;;18.02;6.78;;;;;;;;;;8260473;28;20052;-69
2021/03/22 04:21:13;;;;;;;11.93;5.20;;;;;;;;;;8260111;28;20048;-69
2021/03/22 04:25:17;;;;;;;16.17;5.53;;;;;;;;;;8259761;28;20491;-68
2021/03/22 04:29:21;;;;;;;9.70;4.43;;;;;;;;;;8259909;28;20464;-67
2021/03/22 04:33:26;;;;;;;11.80;5.45;;;;;;;;;;8260144;28;20071;-68
2021/03/22 04:37:30;;;;;;;12.05;5.70;;;;;;;;;;8258956;28;20375;-68
2021/03/22 04:41:36;;;;;;;14.18;5.55;;;;;;;;;;8259827;28;20448;-68
2021/03/22 04:45:41;;;;;;;12.68;5.32;;;;;;;;;;8258495;28;20471;-68
2021/03/22 04:49:46;;;;;;;10.57;5.40;;;;;;;;;;8261542;28;20366;-68
2021/03/22 04:53:51;;;;;;;14.70;5.78;;;;;;;;;;8260938;28;20379;-68
2021/03/22 04:57:55;;;;;;;13.57;5.65;;;;;;;;;;8260791;28;20138;-67
2021/03/22 05:02:00;;;;;;;16.77;6.80;;;;;;;;;;8260162;28;20423;-69
2021/03/22 05:06:04;;;;;;;11.82;6.28;;;;;;;;;;8258848;28;20432;-68
2021/03/22 05:10:10;;;;;;;10.77;5.60;;;;;;;;;;8257372;28;20048;-68
2021/03/22 05:14:15;;;;;;;13.73;7.38;;;;;;;;;;8258170;28;20402;-68
2021/03/22 05:18:23;;;;;;;11.65;5.53;;;;;;;;;;8258465;28;20501;-68
2021/03/22 05:22:27;;;;;;;15.98;5.72;;;;;;;;;;8257969;28;20478;-69
2021/03/22 05:26:32;;;;;;;13.13;5.53;;;;;;;;;;8258521;28;20479;-69
2021/03/22 05:30:37;;;;;;;16.00;6.22;;;;;;;;;;8258400;28;20456;-69
2021/03/22 05:34:42;;;;;;;12.27;5.40;;;;;;;;;;8258620;28;20052;-70
2021/03/22 05:38:46;;;;;;;18.13;7.03;;;;;;;;;;8256317;28;20428;-69
2021/03/22 05:43:04;;;;;;;19.10;6.18;;;;;;;;;;8256770;28;20447;-70
2021/03/22 05:47:35;;;;;;;13.98;7.32;;;;;;;;;;8256561;28;20368;-68
2021/03/22 05:52:11;;;;;;;12.63;5.70;;;;;;;;;;8259781;28;20455;-69
2021/03/22 05:56:52;;;;;;;15.63;6.47;;;;;;;;;;8257098;28;20048;-69
2021/03/22 06:01:23;;;;;;;22.88;7.28;;;;;;;;;;8258825;28;20087;-69
2021/03/22 06:05:47;;;;;;;19.00;6.35;;;;;;;;;;8257629;28;20371;-68
2021/03/22 06:10:21;;;;;;;14.23;5.03;;;;;;;;;;8256164;28;20502;-69
2021/03/22 06:14:51;;;;;;;16.58;4.47;;;;;;;;;;8255545;28;20406;-71
2021/03/22 06:19:17;;;;;;;11.75;4.00;;;;;;;;;;8256334;28;20052;-70
2021/03/22 06:23:22;;;;;;;12.70;4.88;;;;;;;;;;8256987;28;20370;-71
2021/03/22 06:27:28;;;;;;;9.50;4.10;;;;;;;;;;8258639;28;20440;-69
2021/03/22 06:31:32;;;;;;;9.13;3.47;;;;;;;;;;8257499;28;20321;-70
2021/03/22 06:35:37;;;;;;;27.70;10.55;;;;;;;;;;8257028;28;20375;-70
2021/03/22 06:39:46;;;;;;;12.85;4.00;;;;;;;;;;8254970;28;20053;-70
2021/03/22 06:43:55;;;;;;;12.95;4.32;;;;;;;;;;8254237;28;20452;-71
2021/03/22 06:48:22;;;;;;;19.50;5.93;;;;;;;;;;8262330;28;20365;-72
2021/03/22 06:52:39;;;;;;;12.55;3.88;;;;;;;;;;8262184;28;20495;-72
2021/03/22 06:57:07;;;;;;;14.90;5.10;;;;;;;;;;8264801;28;20379;-73
2021/03/22 07:01:31;;;;;;;8.23;3.70;;;;;;;;;;8263060;28;20432;-74
2021/03/22 07:05:40;;;;;;;11.63;4.65;;;;;;;;;;8262884;28;20391;-74
2021/03/22 07:10:16;;;;;;;10.60;4.30;;;;;;;;;;8261708;28;20075;-73
2021/03/22 07:14:29;;;;;;;11.20;4.68;;;;;;;;;;8261617;28;20471;-73
2021/03/22 07:18:34;;;;;;;7.70;2.60;;;;;;;;;;8260469;28;20349;-72
2021/03/22 07:22:38;;;;;;;14.68;4.72;;;;;;;;;;8263527;28;20355;-72
2021/03/22 07:27:05;;;;;;;19.05;5.50;;;;;;;;;;8258938;28;20378;-73
2021/03/22 07:31:16;;;;;;;23.80;8.18;;;;;;;;;;8245565;28;20389;-73
2021/03/22 07:35:44;;;;;;;11.52;4.05;;;;;;;;;;8276869;28;20048;-72
2021/03/22 07:40:39;;;;;;;8.77;2.95;;;;;;;;;;8261064;28;20411;-72
2021/03/22 07:45:15;;;;;;;26.33;10.38;;;;;;;;;;8259319;28;20356;-71
2021/03/22 07:50:11;;;;;;;14.98;5.43;;;;;;;;;;8262995;28;20466;-70
2021/03/22 07:54:34;;;;;;;51.70;13.73;;;;;;;;;;8256088;28;20468;-70
2021/03/22 07:58:56;;;;;;;13.70;5.25;;;;;;;;;;8257681;28;20048;-72
2021/03/22 08:04:05;;;;;;;29.33;10.52;;;;;;;;;;8259983;28;20487;-70
2021/03/22 08:08:38;;;;;;;15.50;5.07;;;;;;;;;;8259332;28;20471;-70
2021/03/22 08:13:03;;;;;;;18.33;6.72;;;;;;;;;;8260259;28;20053;-71
2021/03/22 08:17:51;;;;;;;17.98;5.38;;;;;;;;;;8258983;28;20076;-70
2021/03/22 08:22:14;;;;;;;11.88;4.63;;;;;;;;;;8258011;28;20471;-71
2021/03/22 08:26:43;;;;;;;7.18;2.40;;;;;;;;;;8275225;28;20456;-71
2021/03/22 08:31:23;;;;;;;7.68;3.25;;;;;;;;;;8242841;28;20440;-70
2021/03/22 08:35:38;;;;;;;14.27;5.35;;;;;;;;;;8259202;28;20464;-70
2021/03/22 08:40:19;;;;;;;6.50;2.30;;;;;;;;;;8258270;28;20471;-71
2021/03/22 08:44:48;;;;;;;7.05;1.80;;;;;;;;;;8246872;28;20061;-71
2021/03/22 08:48:52;;;;;;;7.88;2.72;;;;;;;;;;8259279;28;20376;-70
2021/03/22 08:53:13;;;;;;;4.05;1.45;;;;;;;;;;8258885;28;20402;-70
2021/03/22 08:57:29;;;;;;;8.50;3.20;;;;;;;;;;8259039;28;20460;-71
2021/03/22 09:01:35;;;;;;;10.63;2.88;;;;;;;;;;8258105;28;20378;-70
2021/03/22 09:06:03;;;;;;;6.07;3.07;;;;;;;;;;8258433;28;20364;-70
2021/03/22 09:10:27;;;;;;;5.60;1.80;;;;;;;;;;8257534;28;20075;-71
2021/03/22 09:14:42;;;;;;;3.97;1.70;;;;;;;;;;8258966;28;20526;-71
2021/03/22 09:19:10;;;;;;;4.13;1.65;;;;;;;;;;8261202;28;20447;-71
2021/03/22 09:23:32;;;;;;;4.60;2.20;;;;;;;;;;8259528;28;20363;-74
2021/03/22 09:27:36;;;;;;;5.07;1.38;;;;;;;;;;8258852;28;20471;-70
2021/03/22 09:31:43;;;;;;;2.80;1.65;;;;;;;;;;8258413;28;20395;-70
2021/03/22 09:36:10;;;;;;;12.05;1.88;;;;;;;;;;8257551;28;20490;-72
2021/03/22 09:40:21;;;;;;;3.10;1.85;;;;;;;;;;8258799;28;20463;-73
2021/03/22 09:44:32;;;;;;;2.65;1.20;;;;;;;;;;8257950;28;20505;-71
2021/03/22 09:48:40;;;;;;;2.92;1.10;;;;;;;;;;8261341;28;20471;-71
2021/03/22 09:53:25;;;;;;;5.45;2.40;;;;;;;;;;8256169;28;20375;-71
2021/03/22 09:57:44;;;;;;;3.03;1.40;;;;;;;;;;8256922;28;20453;-71
2021/03/22 10:01:49;;;;;;;8.93;3.35;;;;;;;;;;8257695;28;20044;-70
2021/03/22 10:05:52;;;;;;;13.27;4.88;;;;;;;;;;8258241;28;20355;-72
2021/03/22 10:10:08;;;;;;;3.22;1.40;;;;;;;;;;8257612;28;20374;-71
2021/03/22 10:14:40;;;;;;;7.65;3.50;;;;;;;;;;8256967;28;20454;-72
2021/03/22 10:19:04;;;;;;;7.47;4.00;;;;;;;;;;8256572;28;20362;-71
2021/03/22 10:23:32;;;;;;;6.72;2.03;;;;;;;;;;8264408;28;20354;-71
2021/03/22 10:27:39;;;;;;;2.72;1.30;;;;;;;;;;8264840;28;20079;-71
2021/03/22 10:31:59;;;;;;;8.35;3.03;;;;;;;;;;8263124;28;20112;-71
2021/03/22 10:36:05;;;;;;;2.55;1.30;;;;;;;;;;8265591;28;20474;-71
2021/03/22 10:40:37;;;;;;;3.15;1.20;;;;;;;;;;8267648;28;20466;-70
2021/03/22 10:44:42;;;;;;;3.70;1.42;;;;;;;;;;8262903;28;20375;-71
2021/03/22 10:49:17;;;;;;;13.80;4.03;;;;;;;;;;8263459;28;20375;-71
2021/03/22 10:53:21;;;;;;;8.40;2.38;;;;;;;;;;8265804;28;20056;-71
2021/03/22 10:57:35;;;;;;;7.10;2.92;;;;;;;;;;8263646;28;20498;-71
2021/03/22 11:01:41;;;;;;;5.35;2.30;;;;;;;;;;8263586;28;20463;-71
2021/03/22 11:05:45;;;;;;;9.70;2.63;;;;;;;;;;8263010;28;20507;-70
2021/03/22 11:10:22;;;;;;;5.25;1.35;;;;;;;;;;8262088;28;20482;-72
2021/03/22 11:14:30;;;;;;;23.95;5.70;;;;;;;;;;8263466;28;20495;-70
2021/03/22 11:18:35;;;;;;;3.60;1.10;;;;;;;;;;8262228;28;20375;-73
2021/03/22 11:22:45;;;;;;;1.60;0.80;;;;;;;;;;8261827;28;20383;-71
2021/03/22 11:27:01;;;;;;;4.70;1.13;;;;;;;;;;8262024;28;20398;-71
2021/03/22 11:31:29;;;;;;;6.35;2.78;;;;;;;;;;8261735;28;20057;-71
2021/03/22 11:35:33;;;;;;;5.80;1.67;;;;;;;;;;8262648;28;20472;-71
2021/03/22 11:39:38;;;;;;;3.50;1.52;;;;;;;;;;8262348;28;20464;-71
2021/03/22 11:43:43;;;;;;;5.50;1.50;;;;;;;;;;8261816;28;20075;-71
2021/03/22 11:47:48;;;;;;;4.40;1.67;;;;;;;;;;8262148;28;20040;-71
2021/03/22 11:51:54;;;;;;;29.58;12.82;;;;;;;;;;8260294;28;20486;-71
2021/03/22 11:56:20;;;;;;;11.43;6.40;;;;;;;;;;8261491;28;20472;-70
2021/03/22 12:00:35;;;;;;;2.88;1.38;;;;;;;;;;8263028;28;20467;-70
2021/03/22 12:04:52;;;;;;;2.97;1.33;;;;;;;;;;8262926;28;20372;-71
2021/03/22 12:08:58;;;;;;;1.67;0.93;;;;;;;;;;8260517;28;20498;-71
2021/03/22 12:13:04;;;;;;;7.10;1.85;;;;;;;;;;8258852;28;20501;-71
2021/03/22 12:17:23;;;;;;;2.38;1.08;;;;;;;;;;8260180;28;20041;-71
2021/03/22 12:21:28;;;;;;;4.20;1.52;;;;;;;;;;8260182;28;20399;-71
2021/03/22 12:25:36;;;;;;;2.67;1.05;;;;;;;;;;8259694;28;20041;-71
2021/03/22 12:29:42;;;;;;;4.53;2.08;;;;;;;;;;8260267;28;20381;-71
2021/03/22 12:34:05;;;;;;;6.47;3.05;;;;;;;;;;8258787;28;20683;-72
2021/03/22 12:38:10;;;;;;;61.45;21.67;;;;;;;;;;8254381;28;20474;-70
2021/03/22 12:42:15;;;;;;;7.20;2.67;;;;;;;;;;8257413;28;20387;-71
2021/03/22 12:46:19;;;;;;;14.38;3.00;;;;;;;;;;8259263;28;20382;-70
2021/03/22 12:50:30;;;;;;;4.15;2.08;;;;;;;;;;8259794;28;20371;-70
2021/03/22 12:54:34;;;;;;;3.92;1.95;;;;;;;;;;8258030;28;20048;-71
2021/03/22 12:58:41;;;;;;;1.92;1.30;;;;;;;;;;8274475;28;20387;-71
2021/03/22 13:02:46;;;;;;;3.45;1.50;;;;;;;;;;8258549;28;20406;-71
2021/03/22 13:06:49;;;;;;;22.95;9.95;;;;;;;;;;8258255;28;20471;-70
2021/03/22 13:10:55;;;;;;;4.00;2.00;;;;;;;;;;8257352;28;20492;-70
2021/03/22 13:15:00;;;;;;;4.15;2.22;;;;;;;;;;8256276;28;20472;-71
2021/03/22 13:19:04;;;;;;;14.65;3.65;;;;;;;;;;8257291;28;20053;-72
2021/03/22 13:23:10;;;;;;;26.52;11.52;;;;;;;;;;8258220;28;20379;-71
2021/03/22 13:27:18;;;;;;;5.90;3.47;;;;;;;;;;8256848;28;20490;-70
2021/03/22 13:31:23;;;;;;;6.90;2.13;;;;;;;;;;8257909;28;20394;-70
2021/03/22 13:35:29;;;;;;;7.68;3.60;;;;;;;;;;8258842;28;20355;-70
2021/03/22 13:39:33;;;;;;;22.25;8.88;;;;;;;;;;8258251;28;20336;-70
2021/03/22 13:43:37;;;;;;;17.70;4.97;;;;;;;;;;8256613;28;20053;-70
2021/03/22 13:47:41;;;;;;;8.10;2.28;;;;;;;;;;8258831;28;20360;-70
2021/03/22 13:51:46;;;;;;;12.10;4.80;;;;;;;;;;8257863;28;20399;-69
2021/03/22 13:55:51;;;;;;;8.13;4.18;;;;;;;;;;8255382;28;20513;-71
2021/03/22 13:59:55;;;;;;;10.13;3.97;;;;;;;;;;8257391;28;20360;-70
2021/03/22 14:04:00;;;;;;;11.82;5.32;;;;;;;;;;8257809;28;20479;-71
2021/03/22 14:08:05;;;;;;;10.30;4.22;;;;;;;;;;8258129;28;20456;-70
2021/03/22 14:12:10;;;;;;;9.15;4.72;;;;;;;;;;8257456;28;20384;-70
2021/03/22 14:16:23;;;;;;;9.07;3.30;;;;;;;;;;8258574;28;20045;-70
2021/03/22 14:20:28;;;;;;;11.77;4.57;;;;;;;;;;8258498;28;20542;-69
2021/03/22 14:24:33;;;;;;;10.05;4.43;;;;;;;;;;8257281;28;20367;-71
2021/03/22 14:28:38;;;;;;;17.02;4.68;;;;;;;;;;8256623;28;20072;-70
2021/03/22 14:32:43;;;;;;;7.75;3.38;;;;;;;;;;8257790;28;20447;-69
2021/03/22 14:36:49;;;;;;;9.98;4.68;;;;;;;;;;8257388;28;20380;-70
2021/03/22 14:40:53;;;;;;;16.27;7.63;;;;;;;;;;8255342;28;20356;-69
2021/03/22 14:44:57;;;;;;;9.98;4.45;;;;;;;;;;8256049;28;20072;-70
2021/03/22 14:49:02;;;;;;;20.42;7.63;;;;;;;;;;8259495;28;20444;-70
2021/03/22 14:53:06;;;;;;;12.75;6.15;;;;;;;;;;8257554;28;20471;-70
2021/03/22 14:57:13;;;;;;;11.63;4.65;;;;;;;;;;8257785;28;20474;-70
2021/03/22 15:01:20;;;;;;;11.43;4.38;;;;;;;;;;8257676;28;20083;-70
2021/03/22 15:05:29;;;;;;;8.80;3.85;;;;;;;;;;8271907;28;20832;-69
2021/03/22 15:09:33;;;;;;;13.25;4.55;;;;;;;;;;8263381;28;20363;-70
2021/03/22 15:13:39;;;;;;;15.80;6.05;;;;;;;;;;8262870;28;20076;-70
2021/03/22 15:17:44;;;;;;;12.25;4.75;;;;;;;;;;8261535;28;20344;-72
2021/03/22 15:21:50;;;;;;;9.77;4.07;;;;;;;;;;8264852;28;20052;-69
2021/03/22 15:25:56;;;;;;;13.10;5.72;;;;;;;;;;8261205;28;20402;-70
2021/03/22 15:29:59;;;;;;;7.50;3.17;;;;;;;;;;8262414;28;20056;-68
2021/03/22 15:34:04;;;;;;;18.73;6.32;;;;;;;;;;8262872;28;20407;-69
2021/03/22 15:38:08;;;;;;;20.45;5.72;;;;;;;;;;8263530;28;20049;-70
2021/03/22 15:42:12;;;;;;;9.65;4.13;;;;;;;;;;8264438;28;20485;-70
2021/03/22 15:46:17;;;;;;;30.23;12.32;;;;;;;;;;8263312;28;20456;-70
2021/03/22 15:50:23;;;;;;;29.13;11.20;;;;;;;;;;8259866;28;20503;-71
2021/03/22 15:54:28;;;;;;;33.63;14.00;;;;;;;;;;8263223;28;20440;-70
2021/03/22 15:58:32;;;;;;;45.53;24.85;;;;;;;;;;8261513;28;20483;-70
2021/03/22 16:02:37;;;;;;;49.45;17.77;;;;;;;;;;8243358;28;20456;-70
2021/03/22 16:06:42;;;;;;;61.33;25.23;;;;;;;;;;8260218;28;20363;-70
2021/03/22 16:10:48;;;;;;;76.95;27.67;;;;;;;;;;8260787;28;20457;-69
2021/03/22 16:14:53;;;;;;;59.78;18.45;;;;;;;;;;8259842;28;20490;-70
2021/03/22 16:18:57;;;;;;;92.63;28.60;;;;;;;;;;8259511;28;20468;-70
2021/03/22 16:23:04;;;;;;;75.03;22.00;;;;;;;;;;8258490;28;20049;-70
2021/03/22 16:27:09;;;;;;;55.00;18.05;;;;;;;;;;8260004;28;20476;-71
2021/03/22 16:31:14;;;;;;;89.53;32.78;;;;;;;;;;8259645;28;20636;-70
2021/03/22 16:35:36;;;;;;;80.88;30.45;;;;;;;;;;8260629;28;20371;-71
2021/03/22 16:39:43;;;;;;;82.32;35.70;;;;;;;;;;8273503;28;20079;-70
2021/03/22 16:43:48;;;;;;;73.28;25.02;;;;;;;;;;8257696;28;20475;-70
2021/03/22 16:47:53;;;;;;;64.80;22.92;;;;;;;;;;8260688;28;20336;-70
2021/03/22 16:51:58;;;;;;;38.72;13.40;;;;;;;;;;8259922;28;20504;-71
2021/03/22 16:56:07;;;;;;;76.72;26.17;;;;;;;;;;8257533;28;20390;-70
2021/03/22 17:00:17;;;;;;;94.78;32.97;;;;;;;;;;8259104;28;20459;-70
2021/03/22 17:04:21;;;;;;;94.68;31.42;;;;;;;;;;8260099;28;20056;-70
2021/03/22 17:08:30;;;;;;;180.40;55.08;;;;;;;;;;8258922;28;20470;-70
2021/03/22 17:12:35;;;;;;;167.95;52.17;;;;;;;;;;8257727;28;20060;-70
2021/03/22 17:16:40;;;;;;;67.93;26.90;;;;;;;;;;8258387;28;20433;-71
2021/03/22 17:20:44;;;;;;;65.03;20.35;;;;;;;;;;8258714;28;20487;-70
2021/03/22 17:24:53;;;;;;;44.15;14.55;;;;;;;;;;8257261;28;20356;-69
2021/03/22 17:28:59;;;;;;;25.30;9.50;;;;;;;;;;8257243;28;20455;-70
2021/03/22 17:33:08;;;;;;;105.82;26.88;;;;;;;;;;8257045;28;20443;-70
2021/03/22 17:37:13;;;;;;;87.00;27.08;;;;;;;;;;8255930;28;20370;-70
2021/03/22 17:41:19;;;;;;;161.52;42.30;;;;;;;;;;8255956;28;20494;-69
2021/03/22 17:45:30;;;;;;;;;;;;;;;;;;8255501;28;20483;-69
2021/03/22 17:49:35;;;;;;;175.00;45.85;;;;;;;;;;8256339;28;20342;-69
2021/03/22 17:53:40;;;;;;;132.63;37.53;;;;;;;;;;8257799;28;20345;-69
2021/03/22 17:57:44;;;;;;;92.22;25.85;;;;;;;;;;8257957;28;20353;-69
2021/03/22 18:01:49;;;;;;;141.88;37.20;;;;;;;;;;8256967;28;20045;-70
2021/03/22 18:05:54;;;;;;;186.57;46.38;;;;;;;;;;8255493;28;20462;-70
2021/03/22 18:09:58;;;;;;;200.02;54.58;;;;;;;;;;8257093;28;20484;-69
2021/03/22 18:14:04;;;;;;;176.27;50.38;;;;;;;;;;8257620;28;20386;-69
2021/03/22 18:18:10;;;;;;;171.50;47.67;;;;;;;;;;8256048;28;20365;-69
2021/03/22 18:22:15;;;;;;;248.02;75.35;;;;;;;;;;8258058;28;20495;-69
2021/03/22 18:26:21;;;;;;;254.73;76.30;;;;;;;;;;8257433;28;20455;-68
2021/03/22 18:30:28;;;;;;;161.30;52.20;;;;;;;;;;8256065;28;20460;-68
2021/03/22 18:34:34;;;;;;;57.05;19.52;;;;;;;;;;8257198;28;20392;-68
2021/03/22 18:38:38;;;;;;;68.78;27.65;;;;;;;;;;8257776;28;20510;-69
2021/03/22 18:42:43;;;;;;;45.50;19.05;;;;;;;;;;8258529;28;20505;-70
2021/03/22 18:46:48;;;;;;;49.55;18.63;;;;;;;;;;8260946;28;20505;-68
2021/03/22 18:50:55;;;;;;;51.75;16.65;;;;;;;;;;8259967;28;20736;-68
2021/03/22 18:55:00;;;;;;;38.38;10.98;;;;;;;;;;8263137;28;20570;-67
2021/03/22 18:59:04;;;;;;;37.88;12.82;;;;;;;;;;8263612;28;20045;-67
2021/03/22 19:03:09;;;;;;;30.08;9.52;;;;;;;;;;8263159;28;20451;-67
2021/03/22 19:07:14;;;;;;;36.28;11.35;;;;;;;;;;8263409;28;20436;-68
2021/03/22 19:11:20;;;;;;;44.55;14.50;;;;;;;;;;8260359;28;20484;-68
2021/03/22 19:15:27;;;;;;;35.40;12.68;;;;;;;;;;8261363;28;20349;-68
2021/03/22 19:19:32;;;;;;;35.67;12.85;;;;;;;;;;8261957;28;20364;-70
2021/03/22 19:23:39;;;;;;;56.10;17.20;;;;;;;;;;8261636;28;20415;-68
2021/03/22 19:27:44;;;;;;;42.38;15.18;;;;;;;;;;8261813;28;20045;-70
2021/03/22 19:31:48;;;;;;;38.17;11.25;;;;;;;;;;8261633;28;20462;-67
2021/03/22 19:35:58;;;;;;;39.25;15.32;;;;;;;;;;8262503;28;20391;-68
2021/03/22 19:40:09;;;;;;;57.25;20.52;;;;;;;;;;8261494;28;20487;-70
2021/03/22 19:44:13;;;;;;;57.10;20.92;;;;;;;;;;8260054;28;20403;-70
2021/03/22 19:48:19;;;;;;;52.42;17.63;;;;;;;;;;8261905;28;20351;-68
2021/03/22 19:52:24;;;;;;;52.30;19.55;;;;;;;;;;8259008;28;20517;-69
2021/03/22 19:56:28;;;;;;;61.78;19.52;;;;;;;;;;8261011;28;20367;-69
2021/03/22 20:00:33;;;;;;;62.67;21.45;;;;;;;;;;8260504;28;20360;-70
2021/03/22 20:04:38;;;;;;;65.10;24.88;;;;;;;;;;8260761;28;20484;-68
2021/03/22 20:08:43;;;;;;;98.03;31.23;;;;;;;;;;8261886;28;20495;-68
2021/03/22 20:12:47;;;;;;;130.38;42.92;;;;;;;;;;8260354;28;20053;-68
2021/03/22 20:16:52;;;;;;;137.60;47.03;;;;;;;;;;8259618;28;20418;-67
2021/03/22 20:21:02;;;;;;;145.02;46.22;;;;;;;;;;8260659;28;20456;-68
2021/03/22 20:25:08;;;;;;;139.13;46.15;;;;;;;;;;8259753;28;20080;-68
2021/03/22 20:29:12;;;;;;;141.23;47.72;;;;;;;;;;8259472;28;20379;-69
2021/03/22 20:33:21;;;;;;;148.88;46.40;;;;;;;;;;8260164;28;20053;-70
2021/03/22 20:37:28;;;;;;;145.75;46.05;;;;;;;;;;8262080;28;20074;-68
2021/03/22 20:41:35;;;;;;;152.13;49.55;;;;;;;;;;8258281;28;20476;-67
2021/03/22 20:45:38;;;;;;;148.43;47.60;;;;;;;;;;8257241;28;20468;-68
2021/03/22 20:49:43;;;;;;;162.35;52.05;;;;;;;;;;8259424;28;20471;-67
2021/03/22 20:53:48;;;;;;;154.13;48.05;;;;;;;;;;8258485;28;20348;-67
2021/03/22 20:57:52;;;;;;;126.97;42.67;;;;;;;;;;8259818;28;20478;-67
2021/03/22 21:01:57;;;;;;;154.63;51.00;;;;;;;;;;8259297;28;20529;-68
2021/03/22 21:06:04;;;;;;;150.80;48.33;;;;;;;;;;8258844;28;20376;-68
2021/03/22 21:10:14;;;;;;;111.40;37.83;;;;;;;;;;8261089;28;20383;-68
2021/03/22 21:14:18;;;;;;;133.10;40.45;;;;;;;;;;8242138;28;20353;-68
2021/03/22 21:18:41;;;;;;;132.32;40.22;;;;;;;;;;8265279;28;20402;-67
2021/03/22 21:23:05;;;;;;;148.35;45.28;;;;;;;;;;8260145;28;20390;-68
2021/03/22 21:27:13;;;;;;;129.55;43.17;;;;;;;;;;8258870;28;20075;-67
2021/03/22 21:31:17;;;;;;;138.80;43.25;;;;;;;;;;8258456;28;20489;-67
2021/03/22 21:35:25;;;;;;;143.93;45.03;;;;;;;;;;8258590;28;20067;-68
2021/03/22 21:39:31;;;;;;;164.13;56.35;;;;;;;;;;8257746;28;20356;-68
2021/03/22 21:43:36;;;;;;;203.85;62.17;;;;;;;;;;8257149;28;20403;-68
2021/03/22 21:47:40;;;;;;;221.52;65.00;;;;;;;;;;8241933;28;20473;-67
2021/03/22 21:51:47;;;;;;;240.27;69.75;;;;;;;;;;8257175;28;20345;-68
2021/03/22 21:55:53;;;;;;;247.88;74.10;;;;;;;;;;8257236;28;20174;-68
2021/03/22 21:59:57;;;;;;;281.43;80.20;;;;;;;;;;8257184;28;20468;-67
2021/03/22 22:04:02;;;;;;;299.25;87.25;;;;;;;;;;8257141;28;20382;-68
2021/03/22 22:08:07;;;;;;;301.25;88.22;;;;;;;;;;8257408;28;20106;-69
2021/03/22 22:12:12;;;;;;;306.40;89.90;;;;;;;;;;8257978;28;20440;-67
2021/03/22 22:16:17;;;;;;;323.15;95.35;;;;;;;;;;8260641;28;20366;-68
2021/03/22 22:20:22;;;;;;;325.65;96.13;;;;;;;;;;8264952;28;20367;-67
2021/03/22 22:24:26;;;;;;;318.83;92.13;;;;;;;;;;8263205;28;20444;-67
2021/03/22 22:28:31;;;;;;;360.50;98.60;;;;;;;;;;8263906;28;20040;-67
2021/03/22 22:32:37;;;;;;;386.75;106.15;;;;;;;;;;8262176;28;20448;-67
2021/03/22 22:36:42;;;;;;;364.33;102.68;;;;;;;;;;8279462;28;20518;-68
2021/03/22 22:40:50;;;;;;;365.25;100.57;;;;;;;;;;8262816;28;20075;-68
2021/03/22 22:44:54;;;;;;;327.10;91.50;;;;;;;;;;8263300;28;20496;-68
2021/03/22 22:48:58;;;;;;;308.23;89.18;;;;;;;;;;8263564;28;20459;-67
2021/03/22 22:53:04;;;;;;;276.60;82.85;;;;;;;;;;8263355;28;20379;-68
2021/03/22 22:57:09;;;;;;;260.58;74.60;;;;;;;;;;8263740;28;20056;-67
2021/03/22 23:01:14;;;;;;;224.38;68.35;;;;;;;;;;8260625;28;20045;-67
2021/03/22 23:05:38;;;;;;;211.80;63.72;;;;;;;;;;8263620;28;20379;-67
2021/03/22 23:09:44;;;;;;;216.68;67.70;;;;;;;;;;8263215;28;20048;-68
2021/03/22 23:13:49;;;;;;;211.43;64.55;;;;;;;;;;8261880;28;20049;-67
2021/03/22 23:17:56;;;;;;;190.50;61.50;;;;;;;;;;8263182;28;20452;-68
2021/03/22 23:22:01;;;;;;;181.35;57.90;;;;;;;;;;8264862;28;20076;-68
2021/03/22 23:26:06;;;;;;;181.63;60.08;;;;;;;;;;8264786;28;20349;-68
2021/03/22 23:30:25;;;;;;;196.88;56.15;;;;;;;;;;8261081;28;20484;-68
2021/03/22 23:34:46;;;;;;;150.07;51.72;;;;;;;;;;8262077;28;20068;-68
2021/03/22 23:38:51;;;;;;;168.27;53.38;;;;;;;;;;8262068;28;20387;-69
2021/03/22 23:42:55;;;;;;;210.98;69.25;;;;;;;;;;8263277;28;20332;-68
2021/03/22 23:46:59;;;;;;;226.82;74.35;;;;;;;;;;8264426;28;20174;-67
2021/03/22 23:51:08;;;;;;;234.20;78.15;;;;;;;;;;8260676;28;20387;-68
2021/03/22 23:55:19;;;;;;;200.65;70.55;;;;;;;;;;8259195;28;20056;-68
2021/03/22 23:59:23;;;;;;;220.90;70.25;;;;;;;;;;8260940;28;20475;-67
